Wind Star — C6CA9 — position and weather

sailwx.info

Track history (hours):
 
Tides and Currents Weather Stations Pressure Air Temp Water Temp Dewpoint Dewpoint Depression Visibility Wind Speed Wind Dir Waves Ship Positions

Wind Star

Operator: Holland America Line

Last reported at 2017-Aug-15 23:17 UTC. Time now 2017-Aug-19 05:32 UTC.
Position N 44°26' E 014°24'.

Length 134 m; draft 4.1 m.

Type: Ship. MMSI: 309163000.

Date/timePositionNaut miles runAvg speedWind from/ knotsBaromVisibWave heightAir tempDewpointWater temp
2017-Aug-15 23:17N 44°26' E 014°24'6 7.2
2017-Aug-15 22:26N 44°28' E 014°16'3 7.2
2017-Aug-15 22:00N 44°30' E 014°12'4 7.0
2017-Aug-15 21:30N 44°31' E 014°08'4 7.1
2017-Aug-15 21:00N 44°33' E 014°04'4 7.3
2017-Aug-15 20:30N 44°35' E 013°59'3 7.1
2017-Aug-15 20:00N 44°37' E 013°55'4 7.4
2017-Aug-15 19:30N 44°39' E 013°51'4 8.0
2017-Aug-15 19:00N 44°42' E 013°47'4 8.6
2017-Aug-15 18:30N 44°46' E 013°44'4 8.6
2017-Aug-15 18:00N 44°50' E 013°42'4 8.7
2017-Aug-15 17:30N 44°54' E 013°39'4 8.7
2017-Aug-15 17:00N 44°58' E 013°37'4 8.7
2017-Aug-15 16:30N 45°02' E 013°35'3 7.0
2017-Aug-15 16:00N 45°05' E 013°36'1 1.7
2017-Aug-15 15:19N 45°05' E 013°38'0 0.0
2017-Aug-15 14:55N 45°05' E 013°38'0 0.0
2017-Aug-15 14:19N 45°05' E 013°38'0 0.0
2017-Aug-15 13:55N 45°05' E 013°38'0 0.0
2017-Aug-15 13:25N 45°05' E 013°38'0 0.0
2017-Aug-15 12:58N 45°05' E 013°38'0 0.0
2017-Aug-15 12:28N 45°05' E 013°38'0 0.0
2017-Aug-15 11:58N 45°05' E 013°38'0 0.0
2017-Aug-15 11:28N 45°05' E 013°38'0 0.0
2017-Aug-15 10:58N 45°05' E 013°38'0 0.0
2017-Aug-15 10:25N 45°05' E 013°38'0 0.0
2017-Aug-15 09:52N 45°05' E 013°38'0 0.0
2017-Aug-15 09:22N 45°05' E 013°38'0 0.0
2017-Aug-15 08:55N 45°05' E 013°38'0 0.0
2017-Aug-15 08:28N 45°05' E 013°38'0 0.0
2017-Aug-15 07:43N 45°05' E 013°38'0 0.0
2017-Aug-15 07:22N 45°05' E 013°38'0 0.0
2017-Aug-15 06:58N 45°05' E 013°38'0 0.0
2017-Aug-15 06:28N 45°05' E 013°38'0 0.0
2017-Aug-15 06:01N 45°05' E 013°38'0 0.1
2017-Aug-15 05:30N 45°05' E 013°38'1 1.4
2017-Aug-15 05:00N 45°05' E 013°37'3 5.6
2017-Aug-15 04:30N 45°06' E 013°33'2 5.0
2017-Aug-15 04:00N 45°06' E 013°30'2 4.6
2017-Aug-15 03:31N 45°06' E 013°27'2 4.5
2017-Aug-15 03:00N 45°06' E 013°23'2 4.6
2017-Aug-15 02:31N 45°07' E 013°20'2 4.6
2017-Aug-15 02:01N 45°07' E 013°17'2 4.5
2017-Aug-15 01:30N 45°07' E 013°14'2 4.4
2017-Aug-15 01:01N 45°07' E 013°11'2 4.2
2017-Aug-15 00:31N 45°08' E 013°08'2 3.9
2017-Aug-15 00:00N 45°09' E 013°05'2 4.9
2017-Aug-14 23:30N 45°11' E 013°04'2 4.9
2017-Aug-14 23:01N 45°13' E 013°03'2 4.9
2017-Aug-14 22:30N 45°16' E 013°01'2 4.9
2017-Aug-14 22:00N 45°18' E 012°60'2 4.8
2017-Aug-14 21:30N 45°20' E 012°58'2 4.9
2017-Aug-14 21:01N 45°20' E 012°55'2 4.9
2017-Aug-14 20:31N 45°21' E 012°51'3 5.0
2017-Aug-14 20:00N 45°21' E 012°48'2 4.9
2017-Aug-14 19:30N 45°21' E 012°44'2 4.9
2017-Aug-14 19:00N 45°21' E 012°41'3 5.0
2017-Aug-14 18:30N 45°22' E 012°38'3 5.1
2017-Aug-14 18:01N 45°22' E 012°34'3 5.3
2017-Aug-14 17:30N 45°23' E 012°30'3 5.7
2017-Aug-14 17:00N 45°25' E 012°27'3 6.7
2017-Aug-14 16:31N 45°26' E 012°23'3 5.4
2017-Aug-14 16:01N 45°26' E 012°19'0 0.2
2017-Aug-14 15:30N 45°26' E 012°19'0 0.0
2017-Aug-14 15:00N 45°26' E 012°19'0 0.0
2017-Aug-14 14:30N 45°26' E 012°19'0 0.0
2017-Aug-14 14:00N 45°26' E 012°19'0 0.0
2017-Aug-14 13:30N 45°26' E 012°19'0 0.0
2017-Aug-14 13:00N 45°26' E 012°19'0 0.0
2017-Aug-14 12:30N 45°26' E 012°19'0 0.0
2017-Aug-14 12:00N 45°26' E 012°19'0 0.0
2017-Aug-14 11:30N 45°26' E 012°19'0 0.0
2017-Aug-14 11:00N 45°26' E 012°19'0 0.0
2017-Aug-14 10:30N 45°26' E 012°19'0 0.0
2017-Aug-14 10:00N 45°26' E 012°19'0 0.0
2017-Aug-14 09:30N 45°26' E 012°19'0 0.0
2017-Aug-14 09:00N 45°26' E 012°19'0 0.0
2017-Aug-14 08:30N 45°26' E 012°19'0 0.0
2017-Aug-14 08:00N 45°26' E 012°19'0 0.0
2017-Aug-14 07:28N 45°26' E 012°19'0 0.0
2017-Aug-14 06:58N 45°26' E 012°19'0 0.0
2017-Aug-14 06:28N 45°26' E 012°19'0 0.0
2017-Aug-14 05:58N 45°26' E 012°19'0 0.0
2017-Aug-14 05:28N 45°26' E 012°19'0 0.1
2017-Aug-14 05:00N 45°26' E 012°19'1 2.2
2017-Aug-14 04:30N 45°26' E 012°20'2 4.6
2017-Aug-14 04:00N 45°26' E 012°24'4 8.1
2017-Aug-14 03:30N 45°24' E 012°29'3 5.2
2017-Aug-14 03:00N 45°24' E 012°32'6 5.7
2017-Aug-14 02:01N 45°25' E 012°40'2 5.2
2017-Aug-14 01:39N 45°26' E 012°43'1 5.0
2017-Aug-14 01:27N 45°26' E 012°44'2 5.0
2017-Aug-14 01:00N 45°26' E 012°47'3 5.0
2017-Aug-14 00:29N 45°27' E 012°51'2 5.1
2017-Aug-14 00:00N 45°27' E 012°54'3 5.4
2017-Aug-13 23:30N 45°27' E 012°58'3 5.5
2017-Aug-13 23:00N 45°27' E 013°02'3 5.4
2017-Aug-13 22:30N 45°28' E 013°06'3 5.3
2017-Aug-13 22:00N 45°28' E 013°10'3 5.3
2017-Aug-13 21:30N 45°28' E 013°13'3 5.4
2017-Aug-13 21:00N 45°28' E 013°17'3 5.3
2017-Aug-13 20:30N 45°28' E 013°21'3 5.0
2017-Aug-13 20:00N 45°29' E 013°24'3 5.3
2017-Aug-13 19:30N 45°31' E 013°27'3 5.2
2017-Aug-13 19:00N 45°32' E 013°31'2 3.3
2017-Aug-13 18:22N 45°31' E 013°33'0 0.0
2017-Aug-13 17:58N 45°31' E 013°33'0 0.0
2017-Aug-13 17:31N 45°31' E 013°33'0 0.0
2017-Aug-13 16:49N 45°31' E 013°33'0 0.0
2017-Aug-13 16:31N 45°31' E 013°33'0 0.0
2017-Aug-13 16:01N 45°31' E 013°33'0 0.0
2017-Aug-13 15:19N 45°31' E 013°33'0 0.0
2017-Aug-13 14:52N 45°31' E 013°33'0 0.0
2017-Aug-13 14:28N 45°31' E 013°33'0 0.0
2017-Aug-13 14:01N 45°31' E 013°33'0 0.0
2017-Aug-13 13:31N 45°31' E 013°33'0 0.0
2017-Aug-13 12:58N 45°31' E 013°33'0 0.0
2017-Aug-13 12:19N 45°31' E 013°33'0 0.0
2017-Aug-13 11:58N 45°31' E 013°33'0 0.0
2017-Aug-13 11:28N 45°31' E 013°33'0 0.0
2017-Aug-13 10:58N 45°31' E 013°33'0 0.0
2017-Aug-13 10:28N 45°31' E 013°33'0 0.0
2017-Aug-13 09:58N 45°31' E 013°33'0 0.0
2017-Aug-13 09:31N 45°31' E 013°33'0 0.0
2017-Aug-13 09:01N 45°31' E 013°33'0 0.0
2017-Aug-13 08:25N 45°31' E 013°33'0 0.1
2017-Aug-13 08:01N 45°31' E 013°33'0 0.0
2017-Aug-13 07:31N 45°31' E 013°33'0 0.0
2017-Aug-13 07:01N 45°31' E 013°33'0 0.1
2017-Aug-13 06:28N 45°31' E 013°33'0 0.0
2017-Aug-13 05:55N 45°31' E 013°33'0 0.0
2017-Aug-13 05:28N 45°31' E 013°33'0 0.1
2017-Aug-13 05:00N 45°31' E 013°33'2 4.5
2017-Aug-13 04:30N 45°32' E 013°30'3 6.2
2017-Aug-13 04:00N 45°32' E 013°26'3 6.2
2017-Aug-13 03:30N 45°31' E 013°22'3 6.5
2017-Aug-13 03:00N 45°29' E 013°18'3 6.9
2017-Aug-13 02:30N 45°26' E 013°15'3 6.8
2017-Aug-13 02:00N 45°24' E 013°12'3 6.6
2017-Aug-13 01:31N 45°21' E 013°10'4 7.4
2017-Aug-13 01:00N 45°17' E 013°11'4 8.8
2017-Aug-13 00:30N 45°13' E 013°13'4 8.8
2017-Aug-13 00:00N 45°09' E 013°15'4 8.5
2017-Aug-12 23:30N 45°05' E 013°17'5 9.7
2017-Aug-12 23:00N 45°00' E 013°20'5 9.3
2017-Aug-12 22:30N 44°56' E 013°23'5 9.4
2017-Aug-12 22:00N 44°52' E 013°27'5 9.6
2017-Aug-12 21:30N 44°48' E 013°30'5 9.7
2017-Aug-12 21:00N 44°44' E 013°34'7 9.3
2017-Aug-12 20:15N 44°38' E 013°39'4 9.2
2017-Aug-12 19:46N 44°35' E 013°43'2 8.9
2017-Aug-12 19:30N 44°33' E 013°44'4 8.4
2017-Aug-12 19:01N 44°29' E 013°48'7 8.5
2017-Aug-12 18:14N 44°23' E 013°53'2 8.4
2017-Aug-12 17:59N 44°22' E 013°54'  
2017-Aug-08 00:59N 44°27' E 014°23'6 7.9
2017-Aug-08 00:11N 44°29' E 014°15'1 7.9
2017-Aug-08 00:00N 44°29' E 014°13'4 7.7
2017-Aug-07 23:30N 44°31' E 014°08'4 7.9
2017-Aug-07 23:00N 44°33' E 014°04'7 7.8
2017-Aug-07 22:09N 44°40' E 014°02'1 9.0
2017-Aug-07 22:00N 44°41' E 014°02'4 8.6
2017-Aug-07 21:30N 44°45' E 014°04'4 8.8
2017-Aug-07 21:00N 44°49' E 014°07'7 9.1
2017-Aug-07 20:15N 44°55' E 014°11'25 9.0
2017-Aug-07 17:29N 45°20' E 014°20'1 0.1
2017-Aug-07 10:34N 45°20' E 014°19'0 0.3
2017-Aug-07 10:13N 45°20' E 014°19'2 6.6
2017-Aug-07 09:57N 45°18' E 014°19'4 9.2
2017-Aug-07 09:28N 45°14' E 014°19'18 8.1
2017-Aug-07 07:13N 44°57' E 014°12'7 8.3
2017-Aug-07 06:25N 44°50' E 014°08'3 7.6
2017-Aug-07 06:00N 44°48' E 014°06'4 7.5
2017-Aug-07 05:29N 44°44' E 014°03'3 7.1
2017-Aug-07 05:00N 44°42' E 013°60'3 6.5
2017-Aug-07 04:30N 44°41' E 013°55'3 6.6
2017-Aug-07 03:59N 44°41' E 013°50'3 6.9
2017-Aug-07 03:30N 44°41' E 013°46'4 8.1
2017-Aug-07 03:00N 44°41' E 013°40'5 9.2
2017-Aug-07 02:28N 44°42' E 013°33'4 8.7
2017-Aug-07 02:00N 44°43' E 013°28'5 9.7
2017-Aug-07 01:31N 44°47' E 013°24'5 9.9
2017-Aug-07 01:00N 44°51' E 013°20'510.1
2017-Aug-07 00:30N 44°55' E 013°16'510.2
2017-Aug-07 00:00N 44°59' E 013°11'510.0
2017-Aug-06 23:30N 45°02' E 013°06'4 8.8
2017-Aug-06 23:00N 45°06' E 013°02'4 8.8
2017-Aug-06 22:30N 45°10' E 013°01'510.2
2017-Aug-06 22:00N 45°15' E 012°59'4 8.5
2017-Aug-06 21:30N 45°19' E 012°56'3 5.9
2017-Aug-06 21:00N 45°21' E 012°53'3 6.0
2017-Aug-06 20:30N 45°22' E 012°49'2 4.8
2017-Aug-06 20:01N 45°22' E 012°46'3 5.2
2017-Aug-06 19:30N 45°22' E 012°42'3 6.1
2017-Aug-06 19:00N 45°22' E 012°38'3 6.9
2017-Aug-06 18:30N 45°22' E 012°33'4 7.4
2017-Aug-06 18:00N 45°24' E 012°28'4 8.6
2017-Aug-06 17:31N 45°26' E 012°23'3 5.3
2017-Aug-06 17:01N 45°26' E 012°19'0 0.4
2017-Aug-06 16:28N 45°26' E 012°19'0 0.0
2017-Aug-06 15:58N 45°26' E 012°19'0 0.0
2017-Aug-06 15:28N 45°26' E 012°19'0 0.0
2017-Aug-06 14:58N 45°26' E 012°19'0 0.0
2017-Aug-06 14:28N 45°26' E 012°19'0 0.0
2017-Aug-06 13:58N 45°26' E 012°19'0 0.0
2017-Aug-06 13:28N 45°26' E 012°19'0 0.0
2017-Aug-06 12:58N 45°26' E 012°19'0 0.0
2017-Aug-06 12:28N 45°26' E 012°19'0 0.0
2017-Aug-06 11:58N 45°26' E 012°19'0 0.0
2017-Aug-06 11:28N 45°26' E 012°19'0 0.0
2017-Aug-06 10:58N 45°26' E 012°19'0 0.0
2017-Aug-06 10:28N 45°26' E 012°19'0 0.0
2017-Aug-06 09:58N 45°26' E 012°19'0 0.0
2017-Aug-06 09:28N 45°26' E 012°19'0 0.0
2017-Aug-06 08:58N 45°26' E 012°19'0 0.0
2017-Aug-06 08:28N 45°26' E 012°19'0 0.0
2017-Aug-06 07:58N 45°26' E 012°19'0 0.0
2017-Aug-06 07:28N 45°26' E 012°19'0 0.0
2017-Aug-06 06:58N 45°26' E 012°19'0 0.0
2017-Aug-06 06:28N 45°26' E 012°19'0 0.0
2017-Aug-06 05:58N 45°26' E 012°19'0 0.0
2017-Aug-06 05:28N 45°26' E 012°19'0 0.0
2017-Aug-06 05:01N 45°26' E 012°19'0 0.6
2017-Aug-06 04:31N 45°26' E 012°19'2 4.8
2017-Aug-06 04:00N 45°26' E 012°23'4 8.6
2017-Aug-06 03:30N 45°24' E 012°28'5 6.1
2017-Aug-06 02:45N 45°24' E 012°35'2 5.9
2017-Aug-06 02:29N 45°25' E 012°37'3 5.7
2017-Aug-06 02:00N 45°25' E 012°41'3 5.9
2017-Aug-06 01:27N 45°26' E 012°46'3 6.8
2017-Aug-06 01:00N 45°27' E 012°50'2 4.4
2017-Aug-06 00:30N 45°27' E 012°53'2 4.2
2017-Aug-06 00:00N 45°28' E 012°56'3 5.8
2017-Aug-05 23:30N 45°28' E 012°60'  
Track history (hours):
 
Tides and Currents Weather Stations Pressure Air Temp Water Temp Dewpoint Dewpoint Depression Visibility Wind Speed Wind Dir Waves Ship Positions

Wind Star

Operator: Holland America Line

Last reported at 2017-Aug-15 23:17 UTC. Time now 2017-Aug-19 05:32 UTC.
Position N 44°26' E 014°24'.

Length 134 m; draft 4.1 m.

Type: Ship. MMSI: 309163000.

Date/timePositionNaut miles runAvg speedWind from/ knotsBaromVisibWave heightAir tempDewpointWater temp
2017-Aug-15 23:17N 44°26' E 014°24'6 7.2
2017-Aug-15 22:26N 44°28' E 014°16'3 7.2
2017-Aug-15 22:00N 44°30' E 014°12'4 7.0
2017-Aug-15 21:30N 44°31' E 014°08'4 7.1
2017-Aug-15 21:00N 44°33' E 014°04'4 7.3
2017-Aug-15 20:30N 44°35' E 013°59'3 7.1
2017-Aug-15 20:00N 44°37' E 013°55'4 7.4
2017-Aug-15 19:30N 44°39' E 013°51'4 8.0
2017-Aug-15 19:00N 44°42' E 013°47'4 8.6
2017-Aug-15 18:30N 44°46' E 013°44'4 8.6
2017-Aug-15 18:00N 44°50' E 013°42'4 8.7
2017-Aug-15 17:30N 44°54' E 013°39'4 8.7
2017-Aug-15 17:00N 44°58' E 013°37'4 8.7
2017-Aug-15 16:30N 45°02' E 013°35'3 7.0
2017-Aug-15 16:00N 45°05' E 013°36'1 1.7
2017-Aug-15 15:19N 45°05' E 013°38'0 0.0
2017-Aug-15 14:55N 45°05' E 013°38'0 0.0
2017-Aug-15 14:19N 45°05' E 013°38'0 0.0
2017-Aug-15 13:55N 45°05' E 013°38'0 0.0
2017-Aug-15 13:25N 45°05' E 013°38'0 0.0
2017-Aug-15 12:58N 45°05' E 013°38'0 0.0
2017-Aug-15 12:28N 45°05' E 013°38'0 0.0
2017-Aug-15 11:58N 45°05' E 013°38'0 0.0
2017-Aug-15 11:28N 45°05' E 013°38'0 0.0
2017-Aug-15 10:58N 45°05' E 013°38'0 0.0
2017-Aug-15 10:25N 45°05' E 013°38'0 0.0
2017-Aug-15 09:52N 45°05' E 013°38'0 0.0
2017-Aug-15 09:22N 45°05' E 013°38'0 0.0
2017-Aug-15 08:55N 45°05' E 013°38'0 0.0
2017-Aug-15 08:28N 45°05' E 013°38'0 0.0
2017-Aug-15 07:43N 45°05' E 013°38'0 0.0
2017-Aug-15 07:22N 45°05' E 013°38'0 0.0
2017-Aug-15 06:58N 45°05' E 013°38'0 0.0
2017-Aug-15 06:28N 45°05' E 013°38'0 0.0
2017-Aug-15 06:01N 45°05' E 013°38'0 0.1
2017-Aug-15 05:30N 45°05' E 013°38'1 1.4
2017-Aug-15 05:00N 45°05' E 013°37'3 5.6
2017-Aug-15 04:30N 45°06' E 013°33'2 5.0
2017-Aug-15 04:00N 45°06' E 013°30'2 4.6
2017-Aug-15 03:31N 45°06' E 013°27'2 4.5
2017-Aug-15 03:00N 45°06' E 013°23'2 4.6
2017-Aug-15 02:31N 45°07' E 013°20'2 4.6
2017-Aug-15 02:01N 45°07' E 013°17'2 4.5
2017-Aug-15 01:30N 45°07' E 013°14'2 4.4
2017-Aug-15 01:01N 45°07' E 013°11'2 4.2
2017-Aug-15 00:31N 45°08' E 013°08'2 3.9
2017-Aug-15 00:00N 45°09' E 013°05'2 4.9
2017-Aug-14 23:30N 45°11' E 013°04'2 4.9
2017-Aug-14 23:01N 45°13' E 013°03'2 4.9
2017-Aug-14 22:30N 45°16' E 013°01'2 4.9
2017-Aug-14 22:00N 45°18' E 012°60'2 4.8
2017-Aug-14 21:30N 45°20' E 012°58'2 4.9
2017-Aug-14 21:01N 45°20' E 012°55'2 4.9
2017-Aug-14 20:31N 45°21' E 012°51'3 5.0
2017-Aug-14 20:00N 45°21' E 012°48'2 4.9
2017-Aug-14 19:30N 45°21' E 012°44'2 4.9
2017-Aug-14 19:00N 45°21' E 012°41'3 5.0
2017-Aug-14 18:30N 45°22' E 012°38'3 5.1
2017-Aug-14 18:01N 45°22' E 012°34'3 5.3
2017-Aug-14 17:30N 45°23' E 012°30'3 5.7
2017-Aug-14 17:00N 45°25' E 012°27'3 6.7
2017-Aug-14 16:31N 45°26' E 012°23'3 5.4
2017-Aug-14 16:01N 45°26' E 012°19'0 0.2
2017-Aug-14 15:30N 45°26' E 012°19'0 0.0
2017-Aug-14 15:00N 45°26' E 012°19'0 0.0
2017-Aug-14 14:30N 45°26' E 012°19'0 0.0
2017-Aug-14 14:00N 45°26' E 012°19'0 0.0
2017-Aug-14 13:30N 45°26' E 012°19'0 0.0
2017-Aug-14 13:00N 45°26' E 012°19'0 0.0
2017-Aug-14 12:30N 45°26' E 012°19'0 0.0
2017-Aug-14 12:00N 45°26' E 012°19'0 0.0
2017-Aug-14 11:30N 45°26' E 012°19'0 0.0
2017-Aug-14 11:00N 45°26' E 012°19'0 0.0
2017-Aug-14 10:30N 45°26' E 012°19'0 0.0
2017-Aug-14 10:00N 45°26' E 012°19'0 0.0
2017-Aug-14 09:30N 45°26' E 012°19'0 0.0
2017-Aug-14 09:00N 45°26' E 012°19'0 0.0
2017-Aug-14 08:30N 45°26' E 012°19'0 0.0
2017-Aug-14 08:00N 45°26' E 012°19'0 0.0
2017-Aug-14 07:28N 45°26' E 012°19'0 0.0
2017-Aug-14 06:58N 45°26' E 012°19'0 0.0
2017-Aug-14 06:28N 45°26' E 012°19'0 0.0
2017-Aug-14 05:58N 45°26' E 012°19'0 0.0
2017-Aug-14 05:28N 45°26' E 012°19'0 0.1
2017-Aug-14 05:00N 45°26' E 012°19'1 2.2
2017-Aug-14 04:30N 45°26' E 012°20'2 4.6
2017-Aug-14 04:00N 45°26' E 012°24'4 8.1
2017-Aug-14 03:30N 45°24' E 012°29'3 5.2
2017-Aug-14 03:00N 45°24' E 012°32'6 5.7
2017-Aug-14 02:01N 45°25' E 012°40'2 5.2
2017-Aug-14 01:39N 45°26' E 012°43'1 5.0
2017-Aug-14 01:27N 45°26' E 012°44'2 5.0
2017-Aug-14 01:00N 45°26' E 012°47'3 5.0
2017-Aug-14 00:29N 45°27' E 012°51'2 5.1
2017-Aug-14 00:00N 45°27' E 012°54'3 5.4
2017-Aug-13 23:30N 45°27' E 012°58'3 5.5
2017-Aug-13 23:00N 45°27' E 013°02'3 5.4
2017-Aug-13 22:30N 45°28' E 013°06'3 5.3
2017-Aug-13 22:00N 45°28' E 013°10'3 5.3
2017-Aug-13 21:30N 45°28' E 013°13'3 5.4
2017-Aug-13 21:00N 45°28' E 013°17'3 5.3
2017-Aug-13 20:30N 45°28' E 013°21'3 5.0
2017-Aug-13 20:00N 45°29' E 013°24'3 5.3
2017-Aug-13 19:30N 45°31' E 013°27'3 5.2
2017-Aug-13 19:00N 45°32' E 013°31'2 3.3
2017-Aug-13 18:22N 45°31' E 013°33'0 0.0
2017-Aug-13 17:58N 45°31' E 013°33'0 0.0
2017-Aug-13 17:31N 45°31' E 013°33'0 0.0
2017-Aug-13 16:49N 45°31' E 013°33'0 0.0
2017-Aug-13 16:31N 45°31' E 013°33'0 0.0
2017-Aug-13 16:01N 45°31' E 013°33'0 0.0
2017-Aug-13 15:19N 45°31' E 013°33'0 0.0
2017-Aug-13 14:52N 45°31' E 013°33'0 0.0
2017-Aug-13 14:28N 45°31' E 013°33'0 0.0
2017-Aug-13 14:01N 45°31' E 013°33'0 0.0
2017-Aug-13 13:31N 45°31' E 013°33'0 0.0
2017-Aug-13 12:58N 45°31' E 013°33'0 0.0
2017-Aug-13 12:19N 45°31' E 013°33'0 0.0
2017-Aug-13 11:58N 45°31' E 013°33'0 0.0
2017-Aug-13 11:28N 45°31' E 013°33'0 0.0
2017-Aug-13 10:58N 45°31' E 013°33'0 0.0
2017-Aug-13 10:28N 45°31' E 013°33'0 0.0
2017-Aug-13 09:58N 45°31' E 013°33'0 0.0
2017-Aug-13 09:31N 45°31' E 013°33'0 0.0
2017-Aug-13 09:01N 45°31' E 013°33'0 0.0
2017-Aug-13 08:25N 45°31' E 013°33'0 0.1
2017-Aug-13 08:01N 45°31' E 013°33'0 0.0
2017-Aug-13 07:31N 45°31' E 013°33'0 0.0
2017-Aug-13 07:01N 45°31' E 013°33'0 0.1
2017-Aug-13 06:28N 45°31' E 013°33'0 0.0
2017-Aug-13 05:55N 45°31' E 013°33'0 0.0
2017-Aug-13 05:28N 45°31' E 013°33'0 0.1
2017-Aug-13 05:00N 45°31' E 013°33'2 4.5
2017-Aug-13 04:30N 45°32' E 013°30'3 6.2
2017-Aug-13 04:00N 45°32' E 013°26'3 6.2
2017-Aug-13 03:30N 45°31' E 013°22'3 6.5
2017-Aug-13 03:00N 45°29' E 013°18'3 6.9
2017-Aug-13 02:30N 45°26' E 013°15'3 6.8
2017-Aug-13 02:00N 45°24' E 013°12'3 6.6
2017-Aug-13 01:31N 45°21' E 013°10'4 7.4
2017-Aug-13 01:00N 45°17' E 013°11'4 8.8
2017-Aug-13 00:30N 45°13' E 013°13'4 8.8
2017-Aug-13 00:00N 45°09' E 013°15'4 8.5
2017-Aug-12 23:30N 45°05' E 013°17'5 9.7
2017-Aug-12 23:00N 45°00' E 013°20'5 9.3
2017-Aug-12 22:30N 44°56' E 013°23'5 9.4
2017-Aug-12 22:00N 44°52' E 013°27'5 9.6
2017-Aug-12 21:30N 44°48' E 013°30'5 9.7
2017-Aug-12 21:00N 44°44' E 013°34'7 9.3
2017-Aug-12 20:15N 44°38' E 013°39'4 9.2
2017-Aug-12 19:46N 44°35' E 013°43'2 8.9
2017-Aug-12 19:30N 44°33' E 013°44'4 8.4
2017-Aug-12 19:01N 44°29' E 013°48'7 8.5
2017-Aug-12 18:14N 44°23' E 013°53'2 8.4
2017-Aug-12 17:59N 44°22' E 013°54'  
2017-Aug-08 00:59N 44°27' E 014°23'6 7.9
2017-Aug-08 00:11N 44°29' E 014°15'1 7.9
2017-Aug-08 00:00N 44°29' E 014°13'4 7.7
2017-Aug-07 23:30N 44°31' E 014°08'4 7.9
2017-Aug-07 23:00N 44°33' E 014°04'7 7.8
2017-Aug-07 22:09N 44°40' E 014°02'1 9.0
2017-Aug-07 22:00N 44°41' E 014°02'4 8.6
2017-Aug-07 21:30N 44°45' E 014°04'4 8.8
2017-Aug-07 21:00N 44°49' E 014°07'7 9.1
2017-Aug-07 20:15N 44°55' E 014°11'25 9.0
2017-Aug-07 17:29N 45°20' E 014°20'1 0.1
2017-Aug-07 10:34N 45°20' E 014°19'0 0.3
2017-Aug-07 10:13N 45°20' E 014°19'2 6.6
2017-Aug-07 09:57N 45°18' E 014°19'4 9.2
2017-Aug-07 09:28N 45°14' E 014°19'18 8.1
2017-Aug-07 07:13N 44°57' E 014°12'7 8.3
2017-Aug-07 06:25N 44°50' E 014°08'3 7.6
2017-Aug-07 06:00N 44°48' E 014°06'4 7.5
2017-Aug-07 05:29N 44°44' E 014°03'3 7.1
2017-Aug-07 05:00N 44°42' E 013°60'3 6.5
2017-Aug-07 04:30N 44°41' E 013°55'3 6.6
2017-Aug-07 03:59N 44°41' E 013°50'3 6.9
2017-Aug-07 03:30N 44°41' E 013°46'4 8.1
2017-Aug-07 03:00N 44°41' E 013°40'5 9.2
2017-Aug-07 02:28N 44°42' E 013°33'4 8.7
2017-Aug-07 02:00N 44°43' E 013°28'5 9.7
2017-Aug-07 01:31N 44°47' E 013°24'5 9.9
2017-Aug-07 01:00N 44°51' E 013°20'510.1
2017-Aug-07 00:30N 44°55' E 013°16'510.2
2017-Aug-07 00:00N 44°59' E 013°11'510.0
2017-Aug-06 23:30N 45°02' E 013°06'4 8.8
2017-Aug-06 23:00N 45°06' E 013°02'4 8.8
2017-Aug-06 22:30N 45°10' E 013°01'510.2
2017-Aug-06 22:00N 45°15' E 012°59'4 8.5
2017-Aug-06 21:30N 45°19' E 012°56'3 5.9
2017-Aug-06 21:00N 45°21' E 012°53'3 6.0
2017-Aug-06 20:30N 45°22' E 012°49'2 4.8
2017-Aug-06 20:01N 45°22' E 012°46'3 5.2
2017-Aug-06 19:30N 45°22' E 012°42'3 6.1
2017-Aug-06 19:00N 45°22' E 012°38'3 6.9
2017-Aug-06 18:30N 45°22' E 012°33'4 7.4
2017-Aug-06 18:00N 45°24' E 012°28'4 8.6
2017-Aug-06 17:31N 45°26' E 012°23'3 5.3
2017-Aug-06 17:01N 45°26' E 012°19'0 0.4
2017-Aug-06 16:28N 45°26' E 012°19'0 0.0
2017-Aug-06 15:58N 45°26' E 012°19'0 0.0
2017-Aug-06 15:28N 45°26' E 012°19'0 0.0
2017-Aug-06 14:58N 45°26' E 012°19'0 0.0
2017-Aug-06 14:28N 45°26' E 012°19'0 0.0
2017-Aug-06 13:58N 45°26' E 012°19'0 0.0
2017-Aug-06 13:28N 45°26' E 012°19'0 0.0
2017-Aug-06 12:58N 45°26' E 012°19'0 0.0
2017-Aug-06 12:28N 45°26' E 012°19'0 0.0
2017-Aug-06 11:58N 45°26' E 012°19'0 0.0
2017-Aug-06 11:28N 45°26' E 012°19'0 0.0
2017-Aug-06 10:58N 45°26' E 012°19'0 0.0
2017-Aug-06 10:28N 45°26' E 012°19'0 0.0
2017-Aug-06 09:58N 45°26' E 012°19'0 0.0
2017-Aug-06 09:28N 45°26' E 012°19'0 0.0
2017-Aug-06 08:58N 45°26' E 012°19'0 0.0
2017-Aug-06 08:28N 45°26' E 012°19'0 0.0
2017-Aug-06 07:58N 45°26' E 012°19'0 0.0
2017-Aug-06 07:28N 45°26' E 012°19'0 0.0
2017-Aug-06 06:58N 45°26' E 012°19'0 0.0
2017-Aug-06 06:28N 45°26' E 012°19'0 0.0
2017-Aug-06 05:58N 45°26' E 012°19'0 0.0
2017-Aug-06 05:28N 45°26' E 012°19'0 0.0
2017-Aug-06 05:01N 45°26' E 012°19'0 0.6
2017-Aug-06 04:31N 45°26' E 012°19'2 4.8
2017-Aug-06 04:00N 45°26' E 012°23'4 8.6
2017-Aug-06 03:30N 45°24' E 012°28'5 6.1
2017-Aug-06 02:45N 45°24' E 012°35'2 5.9
2017-Aug-06 02:29N 45°25' E 012°37'3 5.7
2017-Aug-06 02:00N 45°25' E 012°41'3 5.9
2017-Aug-06 01:27N 45°26' E 012°46'3 6.8
2017-Aug-06 01:00N 45°27' E 012°50'2 4.4
2017-Aug-06 00:30N 45°27' E 012°53'2 4.2
2017-Aug-06 00:00N 45°28' E 012°56'3 5.8
2017-Aug-05 23:30N 45°28' E 012°60'  

Dump ship's entire track history